Time;durP1;ratioP1;P1;durP2;ratioP2;P2;SDS_P1;SDS_P2;PMS_P1;PMS_P2;Temp;Humidity;BMP_temperature;BMP_pressure;BME280_temperature;BME280_humidity;BME280_pressure;Samples;Min_cycle;Max_cycle;Signal;HPM_P1;HPM_P2
2023/07/10 00:00:19;;;;;;;4.70;4.28;;;25.50;99.90;;;;;;5070906;28;20206;-69
2023/07/10 00:02:48;;;;;;;5.15;3.60;;;25.50;99.90;;;;;;5070130;28;21411;-69
2023/07/10 00:05:17;;;;;;;6.78;5.00;;;25.50;99.90;;;;;;5056829;28;20234;-79
2023/07/10 00:07:44;;;;;;;7.15;4.10;;;25.50;99.90;;;;;;5070061;28;20273;-78
2023/07/10 00:10:12;;;;;;;6.13;3.80;;;25.50;99.90;;;;;;5070379;28;20202;-69
2023/07/10 00:12:40;;;;;;;6.70;4.15;;;25.50;99.90;;;;;;5070130;28;20238;-70
2023/07/10 00:15:21;;;;;;;4.10;3.65;;;25.40;99.90;;;;;;5070056;28;20720;-70
2023/07/10 00:17:51;;;;;;;4.35;3.97;;;25.40;99.90;;;;;;5070198;28;20734;-69
2023/07/10 00:20:20;;;;;;;4.03;3.60;;;25.40;99.90;;;;;;5070529;28;20205;-70
2023/07/10 00:22:47;;;;;;;4.72;4.28;;;25.30;99.90;;;;;;5070472;28;20248;-69
2023/07/10 00:25:16;;;;;;;5.45;3.72;;;25.30;99.90;;;;;;5074414;28;20238;-69
2023/07/10 00:27:44;;;;;;;6.85;4.07;;;25.30;99.90;;;;;;5073916;28;20614;-79
2023/07/10 00:30:19;;;;;;;4.47;3.70;;;25.10;99.90;;;;;;5074173;28;20248;-69
2023/07/10 00:32:46;;;;;;;4.28;3.88;;;25.10;99.90;;;;;;5073881;28;20249;-69
2023/07/10 00:35:16;;;;;;;5.88;3.15;;;25.10;99.90;;;;;;5074512;28;20282;-79
2023/07/10 00:37:46;;;;;;;5.72;3.80;;;25.10;99.90;;;;;;5074013;28;20293;-73
2023/07/10 00:40:22;;;;;;;3.65;3.15;;;25.10;99.90;;;;;;5074196;28;20210;-79
2023/07/10 00:42:56;;;;;;;3.30;3.00;;;25.10;99.90;;;;;;5074750;28;20202;-69
2023/07/10 00:45:23;;;;;;;4.50;3.42;;;25.10;99.90;;;;;;5074263;28;20245;-73
2023/07/10 00:48:04;;;;;;;4.97;3.70;;;25.10;99.90;;;;;;5074071;28;20265;-69
2023/07/10 00:50:37;;;;;;;4.38;3.90;;;25.00;99.90;;;;;;5073717;28;20206;-68
2023/07/10 00:53:22;;;;;;;5.43;3.03;;;25.00;99.90;;;;;;5073880;28;20234;-69
2023/07/10 00:55:51;;;;;;;3.30;3.00;;;24.80;99.90;;;;;;5074121;28;20260;-69
2023/07/10 00:58:24;;;;;;;3.22;2.92;;;24.80;99.90;;;;;;5074270;28;20246;-70
2023/07/10 01:01:03;;;;;;;3.28;2.83;;;24.90;99.90;;;;;;5073431;28;20256;-69
2023/07/10 01:03:30;;;;;;;4.68;3.50;;;24.90;99.90;;;;;;5068489;28;20692;-69
2023/07/10 01:06:02;;;;;;;5.43;3.45;;;24.90;99.90;;;;;;5065052;28;20257;-79
2023/07/10 01:08:30;;;;;;;5.50;3.25;;;24.80;99.90;;;;;;5073201;28;20662;-69
2023/07/10 01:10:57;;;;;;;4.47;3.38;;;24.90;99.90;;;;;;5073724;28;20242;-79
2023/07/10 01:13:23;;;;;;;5.82;3.58;;;24.90;99.90;;;;;;5072927;28;20238;-69
2023/07/10 01:15:50;;;;;;;7.57;3.65;;;24.90;99.90;;;;;;5073607;28;20252;-69
2023/07/10 01:18:19;;;;;;;5.85;3.55;;;25.00;99.90;;;;;;5073680;28;20743;-69
2023/07/10 01:20:48;;;;;;;4.13;2.92;;;25.10;99.90;;;;;;5073589;28;20198;-79
2023/07/10 01:23:18;;;;;;;7.80;3.72;;;25.00;99.90;;;;;;5073858;28;20206;-69
2023/07/10 01:25:53;;;;;;;7.00;3.17;;;25.00;99.90;;;;;;5059407;28;20276;-69
2023/07/10 01:28:22;;;;;;;4.63;2.70;;;24.90;99.90;;;;;;5073302;28;20265;-69
2023/07/10 01:30:51;;;;;;;4.55;3.25;;;24.90;99.90;;;;;;5073032;28;20249;-69
2023/07/10 01:33:21;;;;;;;3.67;2.88;;;24.80;99.90;;;;;;5073585;28;20844;-79
2023/07/10 01:35:53;;;;;;;3.25;2.75;;;24.70;99.90;;;;;;5073074;28;20241;-69
2023/07/10 01:38:22;;;;;;;2.72;2.53;;;24.60;99.90;;;;;;5073345;28;20242;-69
2023/07/10 01:40:54;;;;;;;5.47;3.17;;;24.60;99.90;;;;;;5073069;28;20593;-70
2023/07/10 01:43:21;;;;;;;4.30;2.92;;;24.50;99.90;;;;;;5073069;28;20666;-69
2023/07/10 01:45:50;;;;;;;3.95;3.15;;;24.40;99.90;;;;;;5072967;28;20202;-69
2023/07/10 01:48:20;;;;;;;3.38;2.53;;;24.40;99.90;;;;;;5073292;28;20316;-79
2023/07/10 01:50:47;;;;;;;4.45;2.80;;;24.40;99.90;;;;;;5072948;28;20248;-69
2023/07/10 01:53:14;;;;;;;3.67;2.95;;;24.40;99.90;;;;;;5072886;28;20242;-73
2023/07/10 01:55:45;;;;;;;5.47;2.55;;;24.40;99.90;;;;;;5072434;28;20210;-70
2023/07/10 01:58:12;;;;;;;5.95;3.05;;;24.40;99.90;;;;;;5072918;28;20217;-78
2023/07/10 02:00:40;;;;;;;3.22;2.40;;;24.30;99.90;;;;;;5072231;28;20703;-69
2023/07/10 02:03:07;;;;;;;3.50;2.70;;;24.30;99.90;;;;;;5070915;28;20251;-80
2023/07/10 02:05:34;;;;;;;2.60;2.30;;;24.30;99.90;;;;;;5060082;28;20241;-69
2023/07/10 02:08:01;;;;;;;3.60;2.70;;;24.20;99.90;;;;;;5072668;28;20234;-69
2023/07/10 02:10:29;;;;;;;2.70;2.47;;;24.20;99.90;;;;;;5072278;28;20237;-69
2023/07/10 02:12:58;;;;;;;2.67;2.35;;;24.20;99.90;;;;;;5072598;28;20681;-78
2023/07/10 02:15:25;;;;;;;3.25;2.53;;;24.10;99.90;;;;;;5071778;28;20214;-69
2023/07/10 02:17:52;;;;;;;3.22;2.88;;;24.10;99.90;;;;;;5072405;28;20233;-69
2023/07/10 02:20:19;;;;;;;4.20;2.78;;;24.10;99.90;;;;;;5072482;28;20217;-80
2023/07/10 02:22:46;;;;;;;3.38;2.75;;;24.10;99.90;;;;;;5072367;28;20685;-69
2023/07/10 02:25:13;;;;;;;6.88;2.60;;;24.00;99.90;;;;;;5072238;28;20241;-79
2023/07/10 02:27:40;;;;;;;6.20;2.95;;;24.00;99.90;;;;;;5071713;28;20571;-75
2023/07/10 02:30:09;;;;;;;2.97;2.63;;;24.10;99.90;;;;;;5071928;28;20246;-78
2023/07/10 02:32:36;;;;;;;2.88;2.60;;;24.00;99.90;;;;;;5071670;28;20648;-78
2023/07/10 02:35:03;;;;;;;4.53;3.00;;;24.00;99.90;;;;;;5072315;28;20230;-74
2023/07/10 02:37:30;;;;;;;4.15;2.38;;;23.90;99.90;;;;;;5071652;28;20234;-69
2023/07/10 02:39:57;;;;;;;5.10;2.25;;;23.90;99.90;;;;;;5071997;28;20652;-78
2023/07/10 02:42:24;;;;;;;4.60;2.72;;;23.90;99.90;;;;;;5071341;28;20335;-70
2023/07/10 02:44:51;;;;;;;3.22;2.63;;;23.80;99.90;;;;;;5071930;28;20233;-69
2023/07/10 02:47:19;;;;;;;3.72;2.55;;;23.90;99.90;;;;;;5071134;28;20237;-78
2023/07/10 02:49:46;;;;;;;8.80;3.00;;;23.80;99.90;;;;;;5071797;28;20686;-78
2023/07/10 02:52:13;;;;;;;2.67;2.25;;;23.80;99.90;;;;;;5071827;28;20237;-69
2023/07/10 02:54:40;;;;;;;3.90;2.20;;;23.70;99.90;;;;;;5071334;28;20250;-69
2023/07/10 02:57:07;;;;;;;6.35;2.88;;;23.70;99.90;;;;;;5071438;28;20685;-71
2023/07/10 02:59:34;;;;;;;3.63;2.60;;;23.70;99.90;;;;;;5071083;28;20268;-78
2023/07/10 03:02:01;;;;;;;5.40;2.30;;;23.70;99.90;;;;;;5054171;28;20234;-78
2023/07/10 03:04:29;;;;;;;4.00;2.55;;;23.70;99.90;;;;;;5051335;28;20217;-69
2023/07/10 03:06:56;;;;;;;6.10;3.15;;;23.70;99.90;;;;;;5054154;28;20238;-78
2023/07/10 03:09:23;;;;;;;5.15;3.15;;;23.70;99.90;;;;;;5069352;28;20230;-69
2023/07/10 03:11:50;;;;;;;7.32;3.25;;;23.70;99.90;;;;;;5059025;28;20237;-69
2023/07/10 03:14:17;;;;;;;3.35;2.42;;;23.50;99.90;;;;;;5071505;28;20246;-69
2023/07/10 03:16:44;;;;;;;7.03;2.92;;;23.50;99.90;;;;;;5057106;28;20772;-69
2023/07/10 03:19:10;;;;;;;4.57;3.20;;;23.40;99.90;;;;;;5059419;28;20265;-69
2023/07/10 03:21:39;;;;;;;4.43;2.85;;;23.40;99.90;;;;;;5068767;28;20245;-77
2023/07/10 03:24:06;;;;;;;4.20;2.53;;;23.30;99.90;;;;;;5071350;28;20324;-69
2023/07/10 03:26:33;;;;;;;3.35;3.05;;;23.30;99.90;;;;;;5070441;28;20249;-69
2023/07/10 03:29:07;;;;;;;4.95;3.20;;;23.30;99.90;;;;;;5071035;28;20272;-70
2023/07/10 03:31:35;;;;;;;3.17;2.35;;;23.20;99.90;;;;;;5070583;28;20271;-69
2023/07/10 03:34:02;;;;;;;3.20;2.92;;;23.30;99.90;;;;;;5070854;28;20245;-69
2023/07/10 03:36:30;;;;;;;3.45;2.47;;;23.20;99.90;;;;;;5056631;28;20213;-78
2023/07/10 03:38:58;;;;;;;5.03;3.45;;;23.20;99.90;;;;;;5057327;28;20226;-79
2023/07/10 03:41:26;;;;;;;4.10;2.42;;;23.20;99.90;;;;;;5070147;28;20244;-78
2023/07/10 03:43:53;;;;;;;3.63;2.40;;;23.20;99.90;;;;;;5070966;28;20253;-79
2023/07/10 03:46:20;;;;;;;4.13;2.92;;;23.20;99.90;;;;;;5071085;28;20210;-69
2023/07/10 03:48:48;;;;;;;3.15;2.85;;;23.20;99.90;;;;;;5070757;28;20261;-78
2023/07/10 03:51:16;;;;;;;4.82;3.00;;;23.30;99.90;;;;;;5071064;28;20293;-78
2023/07/10 03:53:43;;;;;;;3.70;2.30;;;23.20;99.90;;;;;;5070239;28;20245;-69
2023/07/10 03:56:11;;;;;;;5.07;2.58;;;23.20;99.90;;;;;;5070547;28;20253;-69
2023/07/10 03:58:40;;;;;;;5.78;2.30;;;23.20;99.90;;;;;;5070362;28;20206;-69
2023/07/10 04:01:08;;;;;;;4.35;3.38;;;23.10;99.90;;;;;;5070761;28;20283;-79
2023/07/10 04:03:37;;;;;;;6.10;2.50;;;23.10;99.90;;;;;;5070074;28;20237;-78
2023/07/10 04:06:05;;;;;;;2.50;2.25;;;23.10;99.90;;;;;;5070351;28;20674;-69
2023/07/10 04:08:33;;;;;;;3.13;2.45;;;23.10;99.90;;;;;;5069936;28;20261;-69
2023/07/10 04:11:02;;;;;;;3.20;2.55;;;23.00;99.90;;;;;;5055959;28;20237;-78
2023/07/10 04:13:30;;;;;;;3.60;3.10;;;23.00;99.90;;;;;;5070552;28;20241;-78
2023/07/10 04:15:59;;;;;;;2.70;2.42;;;23.00;99.90;;;;;;5070419;28;20205;-78
2023/07/10 04:18:28;;;;;;;3.63;2.90;;;23.00;99.90;;;;;;5070241;28;20245;-69
2023/07/10 04:20:55;;;;;;;5.80;2.40;;;23.10;99.90;;;;;;5070211;28;20202;-77
2023/07/10 04:23:22;;;;;;;5.55;3.45;;;23.10;99.90;;;;;;5070574;28;20237;-69
2023/07/10 04:25:49;;;;;;;3.13;2.80;;;23.10;99.90;;;;;;5070587;28;20242;-69
2023/07/10 04:28:16;;;;;;;5.13;2.72;;;23.10;99.90;;;;;;5070429;28;20222;-69
2023/07/10 04:30:46;;;;;;;3.35;2.20;;;23.10;99.90;;;;;;5070029;28;20649;-69
2023/07/10 04:33:14;;;;;;;3.72;2.83;;;23.10;99.90;;;;;;5069998;28;20212;-69
2023/07/10 04:35:41;;;;;;;3.72;2.53;;;23.10;99.90;;;;;;5069807;28;20609;-70
2023/07/10 04:38:08;;;;;;;2.65;2.00;;;23.00;99.90;;;;;;5070146;28;20238;-69
2023/07/10 04:40:35;;;;;;;3.97;2.42;;;23.00;99.90;;;;;;5069522;28;20671;-69
2023/07/10 04:43:03;;;;;;;7.93;3.28;;;23.00;99.90;;;;;;5070246;28;20256;-69
2023/07/10 04:45:30;;;;;;;3.22;2.67;;;23.10;99.90;;;;;;5069809;28;20202;-77
2023/07/10 04:47:58;;;;;;;2.15;1.90;;;23.10;99.90;;;;;;5070072;28;20296;-76
2023/07/10 04:50:25;;;;;;;6.13;3.05;;;23.20;99.90;;;;;;5069786;28;20633;-66
2023/07/10 04:52:52;;;;;;;3.70;3.40;;;23.10;99.90;;;;;;5069865;28;20241;-67
2023/07/10 04:55:19;;;;;;;3.63;2.80;;;23.20;99.90;;;;;;5070184;28;20234;-67
2023/07/10 04:57:46;;;;;;;4.82;2.60;;;23.30;99.90;;;;;;5070051;28;20241;-67
2023/07/10 05:00:14;;;;;;;5.32;2.47;;;23.40;99.90;;;;;;5069858;28;20254;-66
2023/07/10 05:02:41;;;;;;;5.53;2.40;;;23.50;99.90;;;;;;5069636;28;20263;-66
2023/07/10 05:05:09;;;;;;;3.30;2.97;;;23.60;99.90;;;;;;5069834;28;20694;-66
2023/07/10 05:07:36;;;;;;;3.83;2.50;;;23.70;99.90;;;;;;5069442;28;20238;-72
2023/07/10 05:10:04;;;;;;;4.10;2.67;;;23.70;99.90;;;;;;5062548;28;20234;-67
2023/07/10 05:12:30;;;;;;;5.03;3.13;;;23.80;99.90;;;;;;5069028;28;20233;-77
2023/07/10 05:14:57;;;;;;;3.08;2.25;;;23.70;99.90;;;;;;5073547;28;20242;-76
2023/07/10 05:17:24;;;;;;;3.38;2.22;;;23.80;99.90;;;;;;5073059;28;20693;-74
2023/07/10 05:19:51;;;;;;;4.35;2.70;;;23.90;99.90;;;;;;5074004;28;20206;-72
2023/07/10 05:22:19;;;;;;;3.90;2.80;;;24.00;99.90;;;;;;5073548;28;20260;-67
2023/07/10 05:24:46;;;;;;;5.47;2.28;;;24.10;99.90;;;;;;5073353;28;20229;-76
2023/07/10 05:27:13;;;;;;;2.58;2.10;;;24.20;99.90;;;;;;5073414;28;20701;-76
2023/07/10 05:29:40;;;;;;;4.30;2.30;;;24.20;99.90;;;;;;5072531;28;20288;-66
2023/07/10 05:32:08;;;;;;;3.38;2.53;;;24.30;99.90;;;;;;5073227;28;20234;-66
2023/07/10 05:34:35;;;;;;;6.85;2.92;;;24.40;99.90;;;;;;5072939;28;20245;-66
2023/07/10 05:37:02;;;;;;;2.17;1.98;;;24.30;99.90;;;;;;5073148;28;20249;-67
2023/07/10 05:39:31;;;;;;;3.50;2.60;;;24.30;99.90;;;;;;5072969;28;20335;-77
2023/07/10 05:41:58;;;;;;;3.53;2.35;;;24.40;99.90;;;;;;5073048;28;20565;-67
2023/07/10 05:44:25;;;;;;;2.65;2.25;;;24.40;99.90;;;;;;5072612;28;20230;-66
2023/07/10 05:46:55;;;;;;;3.35;2.25;;;24.50;99.90;;;;;;5072720;28;20662;-69
2023/07/10 05:49:23;;;;;;;3.75;2.53;;;24.50;99.90;;;;;;5073226;28;20230;-66
2023/07/10 05:51:50;;;;;;;5.53;2.70;;;24.60;99.90;;;;;;5072778;28;20644;-70
2023/07/10 05:54:17;;;;;;;2.63;2.22;;;24.80;99.90;;;;;;5073243;28;20215;-71
2023/07/10 05:56:45;;;;;;;3.65;2.47;;;24.90;99.90;;;;;;5072119;28;20747;-70
2023/07/10 05:59:13;;;;;;;3.17;2.75;;;25.00;99.90;;;;;;5072981;28;20207;-73
2023/07/10 06:01:40;;;;;;;2.55;1.77;;;25.10;99.90;;;;;;5072398;28;20241;-70
2023/07/10 06:04:07;;;;;;;2.92;2.25;;;25.30;99.90;;;;;;5072790;28;20233;-72
2023/07/10 06:06:34;;;;;;;4.07;2.22;;;25.40;99.90;;;;;;5072092;28;20267;-69
2023/07/10 06:09:01;;;;;;;2.42;2.10;;;25.30;99.90;;;;;;5071694;28;20262;-73
2023/07/10 06:11:28;;;;;;;4.57;2.55;;;25.30;99.90;;;;;;5059182;28;20685;-78
2023/07/10 06:13:56;;;;;;;4.28;2.75;;;25.40;99.90;;;;;;5072770;28;20249;-76
2023/07/10 06:16:23;;;;;;;3.50;2.05;;;25.20;99.90;;;;;;5072014;28;20233;-69
2023/07/10 06:18:50;;;;;;;3.83;1.98;;;25.00;99.90;;;;;;5072839;28;20214;-78
2023/07/10 06:21:17;;;;;;;3.33;2.90;;;25.00;99.90;;;;;;5071412;28;20234;-69
2023/07/10 06:23:44;;;;;;;4.88;2.75;;;25.00;99.90;;;;;;5071957;28;20245;-69
2023/07/10 06:26:11;;;;;;;3.38;2.38;;;25.00;99.90;;;;;;5072055;28;20249;-78
2023/07/10 06:28:38;;;;;;;8.27;2.72;;;25.00;99.90;;;;;;5071852;28;20631;-69
2023/07/10 06:31:08;;;;;;;2.78;2.33;;;24.90;99.90;;;;;;5072240;28;20242;-69
2023/07/10 06:33:36;;;;;;;10.98;3.42;;;24.80;99.90;;;;;;5071626;28;20242;-69
2023/07/10 06:36:04;;;;;;;7.72;2.95;;;24.90;99.90;;;;;;5071781;28;20252;-73
2023/07/10 06:38:31;;;;;;;3.63;2.78;;;24.90;99.90;;;;;;5071531;28;20563;-79
2023/07/10 06:40:58;;;;;;;6.93;3.55;;;25.00;99.90;;;;;;5072299;28;20242;-78
2023/07/10 06:43:25;;;;;;;3.75;2.38;;;25.10;99.90;;;;;;5071489;28;20230;-69
2023/07/10 06:45:55;;;;;;;4.72;2.35;;;25.10;99.90;;;;;;5071988;28;20237;-78
2023/07/10 06:48:24;;;;;;;4.13;2.38;;;25.10;99.90;;;;;;5071774;28;20243;-69
2023/07/10 06:50:53;;;;;;;3.00;2.25;;;25.20;99.90;;;;;;5071543;28;20620;-69
2023/07/10 06:53:20;;;;;;;6.38;2.38;;;25.20;99.90;;;;;;5071798;28;20295;-70
2023/07/10 06:55:53;;;;;;;2.83;2.17;;;25.30;99.90;;;;;;5072092;28;20249;-78
2023/07/10 06:58:20;;;;;;;7.60;3.20;;;25.30;99.90;;;;;;5071635;28;20299;-69
2023/07/10 07:00:48;;;;;;;4.97;2.88;;;25.30;99.90;;;;;;5071632;28;20270;-79
2023/07/10 07:03:15;;;;;;;7.70;2.58;;;25.30;99.90;;;;;;5071482;28;20242;-70
2023/07/10 07:05:43;;;;;;;7.57;3.08;;;25.30;99.90;;;;;;5070498;28;20237;-79
2023/07/10 07:08:12;;;;;;;4.70;2.20;;;25.40;99.90;;;;;;5071787;28;20246;-78
2023/07/10 07:10:41;;;;;;;2.63;2.10;;;25.40;99.90;;;;;;5056540;28;20329;-77
2023/07/10 07:13:08;;;;;;;3.60;2.45;;;25.60;99.90;;;;;;5071566;28;20241;-70
2023/07/10 07:15:36;;;;;;;2.83;2.50;;;25.70;99.90;;;;;;5071070;28;20245;-79
2023/07/10 07:18:03;;;;;;;4.35;3.22;;;25.80;99.90;;;;;;5070918;28;20303;-78
2023/07/10 07:20:30;;;;;;;5.38;2.78;;;25.80;99.90;;;;;;5070827;28;20210;-69
2023/07/10 07:22:59;;;;;;;6.43;3.13;;;25.90;99.90;;;;;;5071173;28;20233;-78
2023/07/10 07:25:26;;;;;;;3.67;2.75;;;26.00;99.90;;;;;;5071138;28;20241;-69
2023/07/10 07:27:52;;;;;;;5.50;3.00;;;26.00;99.90;;;;;;5071097;28;20248;-70
2023/07/10 07:30:21;;;;;;;5.22;2.10;;;26.00;99.90;;;;;;5071339;28;20266;-78
2023/07/10 07:32:49;;;;;;;6.30;4.13;;;26.00;99.90;;;;;;5070249;28;20222;-78
2023/07/10 07:35:16;;;;;;;6.57;3.60;;;26.40;99.90;;;;;;5071277;28;20682;-70
2023/07/10 07:37:43;;;;;;;2.70;2.50;;;26.30;99.90;;;;;;5070594;28;20338;-75
2023/07/10 07:40:16;;;;;;;3.45;2.35;;;26.20;99.90;;;;;;5070846;28;20733;-78
2023/07/10 07:42:43;;;;;;;2.60;2.40;;;26.20;99.90;;;;;;5070573;28;20301;-78
2023/07/10 07:45:11;;;;;;;4.05;3.00;;;26.40;99.90;;;;;;5070836;28;20255;-79
2023/07/10 07:47:40;;;;;;;6.03;3.25;;;26.40;99.90;;;;;;5070366;28;20237;-70
2023/07/10 07:50:08;;;;;;;5.40;2.88;;;26.20;99.90;;;;;;5070583;28;20233;-78
2023/07/10 07:52:34;;;;;;;4.72;3.00;;;26.30;99.90;;;;;;5070363;28;20651;-70
2023/07/10 07:55:01;;;;;;;8.40;4.15;;;26.40;99.90;;;;;;5070618;28;20249;-78
2023/07/10 07:57:30;;;;;;;2.92;2.70;;;26.40;99.90;;;;;;5070334;28;20659;-70
2023/07/10 07:59:57;;;;;;;4.75;3.17;;;26.40;99.90;;;;;;5070501;28;20237;-78
2023/07/10 08:02:23;;;;;;;3.17;2.80;;;26.70;99.90;;;;;;5070304;28;20238;-69
2023/07/10 08:04:50;;;;;;;5.75;2.80;;;27.10;99.90;;;;;;5070863;28;20293;-69
2023/07/10 08:07:17;;;;;;;6.55;3.38;;;27.30;99.90;;;;;;5070692;28;20245;-69
2023/07/10 08:09:44;;;;;;;4.18;2.58;;;27.20;99.90;;;;;;5063345;28;20262;-69
2023/07/10 08:12:11;;;;;;;4.00;2.90;;;27.10;99.90;;;;;;5063194;28;20690;-70
2023/07/10 08:14:40;;;;;;;3.10;2.80;;;27.40;99.90;;;;;;5070156;28;20312;-78
2023/07/10 08:17:07;;;;;;;4.10;3.17;;;27.70;99.90;;;;;;5070373;28;20206;-73
2023/07/10 08:19:34;;;;;;;3.35;2.63;;;27.60;99.90;;;;;;5069980;28;20245;-77
2023/07/10 08:22:01;;;;;;;3.10;2.90;;;27.30;99.90;;;;;;5070445;28;20241;-79
2023/07/10 08:24:28;;;;;;;6.03;3.45;;;27.30;99.90;;;;;;5069996;28;20241;-78
2023/07/10 08:26:56;;;;;;;5.38;3.17;;;27.20;99.90;;;;;;5070328;28;20633;-77
2023/07/10 08:29:25;;;;;;;4.97;2.83;;;27.30;99.90;;;;;;5069991;28;20237;-70
2023/07/10 08:31:54;;;;;;;6.15;2.85;;;27.30;99.90;;;;;;5070200;28;20245;-78
2023/07/10 08:34:22;;;;;;;3.85;3.05;;;26.80;99.90;;;;;;5070391;28;20245;-71
2023/07/10 08:36:51;;;;;;;4.03;3.28;;;26.90;99.90;;;;;;5070325;28;20206;-69
2023/07/10 08:39:18;;;;;;;6.00;2.90;;;27.20;99.90;;;;;;5070432;28;20249;-70
2023/07/10 08:41:45;;;;;;;5.43;3.65;;;27.40;99.90;;;;;;5069743;28;20619;-70
2023/07/10 08:44:13;;;;;;;4.35;3.65;;;27.30;99.90;;;;;;5070948;28;20238;-78
2023/07/10 08:46:40;;;;;;;3.80;2.88;;;27.70;99.90;;;;;;5073531;28;20738;-79
2023/07/10 08:49:17;;;;;;;4.38;3.17;;;27.80;99.90;;;;;;5074234;28;20202;-77
2023/07/10 08:51:53;;;;;;;4.60;3.38;;;28.10;99.90;;;;;;5073533;28;20677;-70
2023/07/10 08:54:20;;;;;;;4.32;3.08;;;28.30;99.90;;;;;;5074317;28;20271;-69
2023/07/10 08:56:51;;;;;;;3.53;2.88;;;28.30;99.90;;;;;;5074128;28;20234;-70
2023/07/10 08:59:38;;;;;;;3.17;2.85;;;28.70;99.90;;;;;;5074395;28;20241;-70
2023/07/10 09:02:17;;;;;;;4.63;3.15;;;29.20;99.90;;;;;;5073762;28;20228;-69
2023/07/10 09:04:47;;;;;;;3.28;2.97;;;30.30;99.90;;;;;;5073279;28;20271;-78
2023/07/10 09:07:15;;;;;;;5.65;4.03;;;30.40;99.90;;;;;;5073529;28;20712;-78
2023/07/10 09:09:47;;;;;;;7.70;4.22;;;29.80;99.90;;;;;;5066980;28;20237;-70
2023/07/10 09:12:18;;;;;;;3.97;3.65;;;30.00;99.90;;;;;;5066848;28;20241;-79
2023/07/10 09:14:53;;;;;;;4.38;3.53;;;30.10;99.90;;;;;;5073281;28;20209;-70
2023/07/10 09:17:33;;;;;;;4.78;2.95;;;31.10;99.90;;;;;;5074086;28;20641;-77
2023/07/10 09:20:04;;;;;;;3.85;3.50;;;30.70;99.90;;;;;;5073608;28;20334;-70
2023/07/10 09:22:34;;;;;;;5.30;3.85;;;30.70;99.90;;;;;;5073374;28;20229;-71
2023/07/10 09:25:01;;;;;;;4.40;3.38;;;30.70;99.90;;;;;;5073405;28;20246;-77
2023/07/10 09:27:29;;;;;;;5.13;3.63;;;31.00;99.90;;;;;;5072966;28;20248;-79
2023/07/10 09:29:58;;;;;;;4.20;3.72;;;30.80;99.90;;;;;;5073020;28;20234;-70
2023/07/10 09:32:25;;;;;;;4.05;3.22;;;30.70;99.90;;;;;;5072880;28;20819;-76
2023/07/10 09:34:54;;;;;;;4.88;3.75;;;30.70;99.90;;;;;;5073341;28;20225;-71
2023/07/10 09:37:26;;;;;;;5.38;3.55;;;31.60;99.90;;;;;;5073297;28;20209;-71
2023/07/10 09:39:53;;;;;;;6.10;4.45;;;33.50;99.90;;;;;;5073130;28;20209;-69
2023/07/10 09:42:21;;;;;;;4.22;3.22;;;35.40;99.90;;;;;;5073738;28;20229;-77
2023/07/10 09:44:52;;;;;;;4.30;3.58;;;37.00;99.90;;;;;;5073052;28;20642;-71
2023/07/10 09:47:20;;;;;;;4.60;2.88;;;39.60;99.90;;;;;;5073394;28;20205;-76
2023/07/10 09:49:50;;;;;;;6.90;4.28;;;42.30;99.90;;;;;;5073000;28;20233;-68
2023/07/10 09:52:26;;;;;;;4.57;3.40;;;43.00;99.90;;;;;;5073384;28;20241;-76
2023/07/10 09:55:01;;;;;;;3.67;3.40;;;43.90;99.90;;;;;;5072772;28;20245;-68
2023/07/10 09:57:29;;;;;;;5.38;3.70;;;44.00;99.90;;;;;;5072520;28;20248;-75
2023/07/10 09:59:59;;;;;;;4.15;3.15;;;44.30;99.90;;;;;;5072804;28;20245;-67
2023/07/10 10:02:28;;;;;;;8.02;3.53;;;45.30;99.90;;;;;;5072461;28;20205;-69
2023/07/10 10:05:04;;;;;;;3.90;2.63;;;44.50;99.90;;;;;;5073001;28;20671;-73
2023/07/10 10:07:39;;;;;;;3.95;3.33;;;44.70;99.90;;;;;;5072227;28;20201;-77
2023/07/10 10:10:21;;;;;;;6.53;3.60;;;45.70;99.90;;;;;;5062755;28;20264;-68
2023/07/10 10:12:53;;;;;;;4.35;3.10;;;45.40;99.90;;;;;;5070704;28;20233;-69
2023/07/10 10:15:26;;;;;;;3.88;3.47;;;44.70;99.90;;;;;;5072753;28;20213;-69
2023/07/10 10:18:01;;;;;;;5.10;3.40;;;46.50;99.90;;;;;;5072322;28;20233;-68
2023/07/10 10:20:31;;;;;;;4.32;3.50;;;47.50;99.90;;;;;;5072282;28;20299;-75
2023/07/10 10:22:59;;;;;;;5.68;3.83;;;48.20;99.90;;;;;;5072383;28;20202;-68
2023/07/10 10:25:33;;;;;;;4.22;3.60;;;48.50;99.90;;;;;;5071914;28;20248;-68
2023/07/10 10:28:33;;;;;;;3.70;3.42;;;46.80;99.90;;;;;;5071858;28;20232;-70
2023/07/10 10:31:04;;;;;;;5.05;3.33;;;46.00;99.90;;;;;;5072278;28;20728;-79
2023/07/10 10:33:37;;;;;;;4.82;3.40;;;43.00;99.90;;;;;;5071739;28;20252;-79
2023/07/10 10:36:19;;;;;;;4.07;3.67;;;38.80;99.90;;;;;;5072063;28;20237;-70
2023/07/10 10:38:58;;;;;;;4.88;4.43;;;36.30;99.90;;;;;;5072198;28;20233;-70
2023/07/10 10:41:46;;;;;;;4.63;4.22;;;34.70;99.90;;;;;;5071436;28;20629;-70
2023/07/10 10:44:39;;;;;;;4.35;3.92;;;33.70;99.90;;;;;;5072093;28;20201;-76
2023/07/10 10:47:29;;;;;;;4.63;4.00;;;33.20;99.90;;;;;;5071933;28;20688;-70
2023/07/10 10:50:15;;;;;;;4.55;4.07;;;32.10;99.90;;;;;;5071776;28;20201;-70
2023/07/10 10:52:57;;;;;;;4.82;4.43;;;32.20;99.90;;;;;;5071407;28;20236;-78
2023/07/10 10:55:44;;;;;;;4.70;4.05;;;32.40;99.90;;;;;;5070848;28;20633;-72
2023/07/10 10:58:22;;;;;;;8.40;4.30;;;32.40;99.90;;;;;;5071750;28;20712;-77
2023/07/10 11:01:04;;;;;;;6.70;4.03;;;32.60;99.90;;;;;;5071914;28;20711;-70
2023/07/10 11:03:36;;;;;;;4.05;3.63;;;32.60;99.90;;;;;;5071228;28;20236;-78
2023/07/10 11:06:23;;;;;;;5.00;4.15;;;32.30;99.90;;;;;;5071527;28;20244;-70
2023/07/10 11:08:54;;;;;;;6.88;4.55;;;32.40;99.90;;;;;;5071269;28;20233;-70
2023/07/10 11:11:27;;;;;;;5.50;5.00;;;32.50;99.90;;;;;;5071198;28;20286;-70
2023/07/10 11:13:54;;;;;;;6.18;4.72;;;32.50;99.90;;;;;;5071456;28;20692;-70
2023/07/10 11:16:21;;;;;;;10.55;4.43;;;32.70;99.90;;;;;;5071269;28;20268;-70
2023/07/10 11:18:48;;;;;;;10.07;5.25;;;32.50;99.90;;;;;;5071808;28;20244;-70
2023/07/10 11:21:15;;;;;;;6.03;5.07;;;32.20;99.90;;;;;;5071328;28;20259;-74
2023/07/10 11:23:48;;;;;;;12.35;5.70;;;32.10;99.90;;;;;;5070679;28;20704;-70
2023/07/10 11:26:17;;;;;;;7.93;4.43;;;32.00;99.90;;;;;;5071065;28;20214;-71
2023/07/10 11:28:54;;;;;;;7.78;3.72;;;32.10;99.90;;;;;;5070877;28;20657;-70
2023/07/10 11:31:28;;;;;;;5.15;4.38;;;32.20;99.90;;;;;;5071076;28;20279;-70
2023/07/10 11:34:24;;;;;;;5.95;4.93;;;32.30;99.90;;;;;;5070835;28;20281;-70
2023/07/10 11:36:51;;;;;;;4.82;4.00;;;32.10;99.90;;;;;;5062136;28;20241;-77
2023/07/10 11:39:20;;;;;;;5.82;4.78;;;32.40;99.90;;;;;;5071122;28;20214;-77
2023/07/10 11:42:07;;;;;;;5.93;4.40;;;32.50;99.90;;;;;;5070620;28;20730;-68
2023/07/10 11:44:41;;;;;;;4.88;4.38;;;32.50;99.90;;;;;;5070378;28;20216;-77
2023/07/10 11:47:27;;;;;;;4.72;4.32;;;32.20;99.90;;;;;;5070878;28;20270;-70
2023/07/10 11:50:24;;;;;;;7.65;5.10;;;32.20;99.90;;;;;;5070730;28;20241;-70
2023/07/10 11:53:22;;;;;;;5.18;4.68;;;32.50;99.90;;;;;;5036594;28;20260;-69
2023/07/10 11:55:58;;;;;;;6.82;5.32;;;32.60;99.90;;;;;;5058927;28;20578;-78
2023/07/10 11:58:28;;;;;;;9.65;5.63;;;32.30;99.90;;;;;;5070343;28;20209;-72
2023/07/10 12:01:08;;;;;;;4.95;4.45;;;32.50;99.90;;;;;;5070704;28;20213;-77
2023/07/10 12:03:35;;;;;;;6.75;6.07;;;32.20;99.90;;;;;;5070008;28;20244;-78
2023/07/10 12:06:02;;;;;;;6.32;5.60;;;32.40;99.90;;;;;;5070959;28;20198;-70
2023/07/10 12:08:31;;;;;;;6.55;5.35;;;32.50;99.90;;;;;;5070134;28;20241;-70
2023/07/10 12:10:59;;;;;;;6.63;5.50;;;32.70;99.90;;;;;;5056294;28;20261;-70
2023/07/10 12:13:27;;;;;;;7.20;5.10;;;32.80;99.90;;;;;;5070114;28;20589;-70
2023/07/10 12:15:57;;;;;;;6.85;6.13;;;32.60;99.90;;;;;;5070174;28;20583;-73
2023/07/10 12:18:30;;;;;;;5.82;5.32;;;32.60;99.90;;;;;;5069733;28;20718;-70
2023/07/10 12:21:01;;;;;;;6.35;5.68;;;32.80;99.90;;;;;;5070036;28;20210;-69
2023/07/10 12:23:28;;;;;;;6.60;5.63;;;32.80;99.90;;;;;;5070061;28;20205;-75
2023/07/10 12:25:56;;;;;;;5.82;5.22;;;32.70;99.90;;;;;;5070484;28;20316;-70
2023/07/10 12:28:25;;;;;;;6.78;5.18;;;33.00;99.90;;;;;;5070079;28;20248;-71
2023/07/10 12:30:54;;;;;;;6.18;5.53;;;33.10;99.90;;;;;;5070276;28;20272;-70
2023/07/10 12:33:36;;;;;;;5.22;4.55;;;32.90;99.90;;;;;;5070128;28;20264;-77
2023/07/10 12:36:06;;;;;;;7.90;4.93;;;33.00;99.90;;;;;;5070445;28;20237;-70
2023/07/10 12:38:35;;;;;;;7.88;5.50;;;33.00;99.90;;;;;;5069877;28;20396;-78
2023/07/10 12:41:04;;;;;;;8.25;5.57;;;33.10;99.90;;;;;;5070186;28;20240;-78
2023/07/10 12:43:30;;;;;;;6.72;5.57;;;33.00;99.90;;;;;;5069616;28;20205;-79
2023/07/10 12:45:58;;;;;;;7.35;6.60;;;33.20;99.90;;;;;;5070546;28;20207;-69
2023/07/10 12:48:30;;;;;;;7.55;5.63;;;33.20;99.90;;;;;;5069783;28;20231;-78
2023/07/10 12:51:01;;;;;;;6.55;5.88;;;33.20;99.90;;;;;;5070111;28;20229;-70
2023/07/10 12:53:33;;;;;;;5.15;4.60;;;33.30;99.90;;;;;;5069270;28;20244;-70
2023/07/10 12:56:07;;;;;;;6.60;6.00;;;33.20;99.90;;;;;;5070366;28;20240;-70
2023/07/10 12:58:35;;;;;;;6.90;6.18;;;33.20;99.90;;;;;;5069679;28;20240;-70